الصفحة الرئيسية
METAR-TAF:

METAR-TAF

مطار :

مطار كريستيانو رونالدو

فونشال, جزر ماديرا, البرتغال

دائرة عرض: 32-41-52N, خط طول: 016-46-28W, ارتفاع: 59 متر

مراقبة الطقس الحالي

تاريخ ووقت الإصدار 27 دقيقة قبل الساعة 06:00UTC
ريح 10 عقدة من الشمال, الاتجاه يتراوح بين الشمال الغربي و الشمال الشرقي
درجة الحرارة 21°درجة مئوية
الرطوبة 64%
ضغط 1024 hPa
الرؤية 10 كم أو أكثر
غيوم متفرقة على ارتفاع 1600 قدم

METAR: LPMA 160600Z 01010KT 310V040 9999 SCT016 21/14 Q1024

زمن: 07:27 (06:27 UTC)

توقعات

تاريخ ووقت الإصدار 1ساعة و 27 دقيقة قبل الساعة 05:00UTC
التوقعات صالحة من16 الساعة 06 UTC إلى 17 الساعة 06 UTC
ريح 12 عقدة من الشمال
الرؤية 10 كم أو أكثر
غيوم متفرقة على ارتفاع 1500 قدم
نظرية الاحتمالات 40% :
مؤقت
من 16 الساعة 06 UTC إلى 17 الساعة 06 UTC
ريح 15 عقدة من الشمال تتزايد حتى 25 عقدة

TAF: LPMA 160500Z 1606/1706 01012KT 9999 SCT015 PROB40 TEMPO 1606/1706 01015G25KT

أرصاد الطقس والتوقعات من أكثر من 4000 مطار (تقارير الطقس للمطار METAR والتنبؤ بالطقس بالمطارTAF).

المحطات المتاحة هي النقط الصفراء والحمراء على الخريطة.

حرك المؤشر فوق النقطة لمعرفة اسم المحطة.

ثم انقر لمعرفة أرصاد وتوقعات الطقس.

لتغيير الخارطة: اضغط على الأزرار الخضراء مع رمز الصليب الأسود للتكبير. على الزر الأخضر مع شرطة للتصغير، أو على الأسهم الخضراء للخرائط المجاورة.


METAR-TAF: